sensor_id;sensor_type;location;lat;lon;timestamp;P1;durP1;ratioP1;P2;durP2;ratioP2
31730;SDS011;18310;55.586;12.286;2023-05-13T00:02:04;3.30;;;2.20;;
31730;SDS011;18310;55.586;12.286;2023-05-13T00:05:10;6.40;;;2.40;;
31730;SDS011;18310;55.586;12.286;2023-05-13T00:08:13;4.55;;;2.40;;
31730;SDS011;18310;55.586;12.286;2023-05-13T00:11:17;6.03;;;2.35;;
31730;SDS011;18310;55.586;12.286;2023-05-13T00:14:20;3.85;;;2.35;;
31730;SDS011;18310;55.586;12.286;2023-05-13T00:17:23;4.68;;;2.30;;
31730;SDS011;18310;55.586;12.286;2023-05-13T00:20:28;4.82;;;2.45;;
31730;SDS011;18310;55.586;12.286;2023-05-13T00:23:31;3.67;;;1.80;;
31730;SDS011;18310;55.586;12.286;2023-05-13T00:26:34;5.10;;;2.50;;
31730;SDS011;18310;55.586;12.286;2023-05-13T00:29:37;5.05;;;2.05;;
31730;SDS011;18310;55.586;12.286;2023-05-13T00:32:41;4.38;;;1.92;;
31730;SDS011;18310;55.586;12.286;2023-05-13T00:35:45;4.57;;;2.30;;
31730;SDS011;18310;55.586;12.286;2023-05-13T00:38:49;5.35;;;2.53;;
31730;SDS011;18310;55.586;12.286;2023-05-13T00:41:53;4.45;;;2.50;;
31730;SDS011;18310;55.586;12.286;2023-05-13T00:44:56;4.38;;;2.05;;
31730;SDS011;18310;55.586;12.286;2023-05-13T00:47:59;4.82;;;2.20;;
31730;SDS011;18310;55.586;12.286;2023-05-13T00:51:04;6.57;;;2.60;;
31730;SDS011;18310;55.586;12.286;2023-05-13T00:54:07;6.65;;;2.70;;
31730;SDS011;18310;55.586;12.286;2023-05-13T00:57:11;7.00;;;2.20;;
31730;SDS011;18310;55.586;12.286;2023-05-13T01:00:14;4.43;;;2.57;;
31730;SDS011;18310;55.586;12.286;2023-05-13T01:03:19;6.07;;;2.53;;
31730;SDS011;18310;55.586;12.286;2023-05-13T01:06:32;6.07;;;2.38;;
31730;SDS011;18310;55.586;12.286;2023-05-13T01:09:47;5.43;;;2.40;;
31730;SDS011;18310;55.586;12.286;2023-05-13T01:12:56;3.17;;;1.70;;
31730;SDS011;18310;55.586;12.286;2023-05-13T01:16:02;4.70;;;2.30;;
31730;SDS011;18310;55.586;12.286;2023-05-13T01:19:16;4.40;;;2.65;;
31730;SDS011;18310;55.586;12.286;2023-05-13T01:22:31;3.60;;;2.17;;
31730;SDS011;18310;55.586;12.286;2023-05-13T01:25:35;6.88;;;2.30;;
31730;SDS011;18310;55.586;12.286;2023-05-13T01:28:38;5.95;;;2.17;;
31730;SDS011;18310;55.586;12.286;2023-05-13T01:31:41;4.63;;;2.73;;
31730;SDS011;18310;55.586;12.286;2023-05-13T01:34:44;4.50;;;2.47;;
31730;SDS011;18310;55.586;12.286;2023-05-13T01:37:50;5.30;;;2.55;;
31730;SDS011;18310;55.586;12.286;2023-05-13T01:40:55;6.63;;;2.13;;
31730;SDS011;18310;55.586;12.286;2023-05-13T01:44:00;5.40;;;2.30;;
31730;SDS011;18310;55.586;12.286;2023-05-13T01:47:03;5.05;;;2.25;;
31730;SDS011;18310;55.586;12.286;2023-05-13T01:50:07;4.07;;;2.00;;
31730;SDS011;18310;55.586;12.286;2023-05-13T01:53:13;4.95;;;2.40;;
31730;SDS011;18310;55.586;12.286;2023-05-13T01:56:16;7.63;;;2.40;;
31730;SDS011;18310;55.586;12.286;2023-05-13T01:59:19;5.32;;;1.92;;
31730;SDS011;18310;55.586;12.286;2023-05-13T02:02:23;6.00;;;2.47;;
31730;SDS011;18310;55.586;12.286;2023-05-13T02:05:26;3.60;;;2.13;;
31730;SDS011;18310;55.586;12.286;2023-05-13T02:08:31;3.42;;;2.05;;
31730;SDS011;18310;55.586;12.286;2023-05-13T02:14:37;8.32;;;2.00;;
31730;SDS011;18310;55.586;12.286;2023-05-13T02:17:40;3.10;;;1.77;;
31730;SDS011;18310;55.586;12.286;2023-05-13T02:20:43;5.22;;;1.80;;
31730;SDS011;18310;55.586;12.286;2023-05-13T02:23:48;3.63;;;2.33;;
31730;SDS011;18310;55.586;12.286;2023-05-13T02:26:51;5.97;;;1.63;;
31730;SDS011;18310;55.586;12.286;2023-05-13T02:29:55;5.80;;;2.33;;
31730;SDS011;18310;55.586;12.286;2023-05-13T02:32:58;5.70;;;2.08;;
31730;SDS011;18310;55.586;12.286;2023-05-13T02:36:02;5.72;;;2.00;;
31730;SDS011;18310;55.586;12.286;2023-05-13T02:39:07;3.63;;;1.98;;
31730;SDS011;18310;55.586;12.286;2023-05-13T02:42:10;5.97;;;2.00;;
31730;SDS011;18310;55.586;12.286;2023-05-13T02:45:14;3.40;;;1.92;;
31730;SDS011;18310;55.586;12.286;2023-05-13T02:48:17;6.55;;;2.17;;
31730;SDS011;18310;55.586;12.286;2023-05-13T02:51:20;6.35;;;1.95;;
31730;SDS011;18310;55.586;12.286;2023-05-13T02:54:25;3.27;;;1.70;;
31730;SDS011;18310;55.586;12.286;2023-05-13T03:00:31;3.72;;;2.05;;
31730;SDS011;18310;55.586;12.286;2023-05-13T03:03:34;4.25;;;2.10;;
31730;SDS011;18310;55.586;12.286;2023-05-13T03:06:38;3.05;;;1.73;;
31730;SDS011;18310;55.586;12.286;2023-05-13T03:09:42;4.10;;;2.28;;
31730;SDS011;18310;55.586;12.286;2023-05-13T03:12:45;6.80;;;2.05;;
31730;SDS011;18310;55.586;12.286;2023-05-13T03:15:48;3.95;;;2.00;;
31730;SDS011;18310;55.586;12.286;2023-05-13T03:18:51;4.57;;;2.07;;
31730;SDS011;18310;55.586;12.286;2023-05-13T03:21:55;4.80;;;2.43;;
31730;SDS011;18310;55.586;12.286;2023-05-13T03:24:59;5.70;;;1.95;;
31730;SDS011;18310;55.586;12.286;2023-05-13T03:28:03;8.13;;;2.10;;
31730;SDS011;18310;55.586;12.286;2023-05-13T03:31:06;5.93;;;2.00;;
31730;SDS011;18310;55.586;12.286;2023-05-13T03:34:09;5.78;;;2.30;;
31730;SDS011;18310;55.586;12.286;2023-05-13T03:37:12;5.10;;;2.05;;
31730;SDS011;18310;55.586;12.286;2023-05-13T03:40:17;4.68;;;2.20;;
31730;SDS011;18310;55.586;12.286;2023-05-13T03:43:21;5.80;;;2.13;;
31730;SDS011;18310;55.586;12.286;2023-05-13T03:46:25;8.17;;;2.17;;
31730;SDS011;18310;55.586;12.286;2023-05-13T03:49:28;4.10;;;2.05;;
31730;SDS011;18310;55.586;12.286;2023-05-13T03:52:31;4.80;;;2.10;;
31730;SDS011;18310;55.586;12.286;2023-05-13T03:55:36;5.68;;;2.03;;
31730;SDS011;18310;55.586;12.286;2023-05-13T03:58:40;3.50;;;2.22;;
31730;SDS011;18310;55.586;12.286;2023-05-13T04:01:43;4.13;;;2.13;;
31730;SDS011;18310;55.586;12.286;2023-05-13T04:04:46;4.50;;;1.98;;
31730;SDS011;18310;55.586;12.286;2023-05-13T04:07:49;4.45;;;2.20;;
31730;SDS011;18310;55.586;12.286;2023-05-13T04:10:54;2.97;;;1.95;;
31730;SDS011;18310;55.586;12.286;2023-05-13T04:13:57;4.00;;;2.50;;
31730;SDS011;18310;55.586;12.286;2023-05-13T04:17:01;5.03;;;2.20;;
31730;SDS011;18310;55.586;12.286;2023-05-13T04:20:04;3.43;;;1.83;;
31730;SDS011;18310;55.586;12.286;2023-05-13T04:23:09;4.60;;;2.08;;
31730;SDS011;18310;55.586;12.286;2023-05-13T04:26:13;4.30;;;2.13;;
31730;SDS011;18310;55.586;12.286;2023-05-13T04:29:17;4.25;;;2.38;;
31730;SDS011;18310;55.586;12.286;2023-05-13T04:32:20;9.40;;;2.87;;
31730;SDS011;18310;55.586;12.286;2023-05-13T04:35:23;4.10;;;2.50;;
31730;SDS011;18310;55.586;12.286;2023-05-13T04:38:27;6.17;;;2.90;;
31730;SDS011;18310;55.586;12.286;2023-05-13T04:41:32;7.78;;;2.40;;
31730;SDS011;18310;55.586;12.286;2023-05-13T04:44:35;4.43;;;2.40;;
31730;SDS011;18310;55.586;12.286;2023-05-13T04:47:38;4.07;;;2.08;;
31730;SDS011;18310;55.586;12.286;2023-05-13T04:50:43;3.55;;;1.85;;
31730;SDS011;18310;55.586;12.286;2023-05-13T04:53:48;5.57;;;2.22;;
31730;SDS011;18310;55.586;12.286;2023-05-13T04:56:53;4.43;;;2.15;;
31730;SDS011;18310;55.586;12.286;2023-05-13T04:59:56;4.45;;;2.33;;
31730;SDS011;18310;55.586;12.286;2023-05-13T05:02:59;4.20;;;2.28;;
31730;SDS011;18310;55.586;12.286;2023-05-13T05:06:02;3.78;;;2.30;;
31730;SDS011;18310;55.586;12.286;2023-05-13T05:09:05;5.70;;;2.50;;
31730;SDS011;18310;55.586;12.286;2023-05-13T05:12:10;5.68;;;2.70;;
31730;SDS011;18310;55.586;12.286;2023-05-13T05:15:13;4.07;;;2.63;;
31730;SDS011;18310;55.586;12.286;2023-05-13T05:18:17;9.50;;;2.78;;
31730;SDS011;18310;55.586;12.286;2023-05-13T05:21:20;6.05;;;2.92;;
31730;SDS011;18310;55.586;12.286;2023-05-13T05:24:23;5.78;;;2.53;;
31730;SDS011;18310;55.586;12.286;2023-05-13T05:27:27;5.37;;;2.83;;
31730;SDS011;18310;55.586;12.286;2023-05-13T05:30:31;6.15;;;2.80;;
31730;SDS011;18310;55.586;12.286;2023-05-13T05:33:39;8.60;;;2.80;;
31730;SDS011;18310;55.586;12.286;2023-05-13T05:36:43;6.50;;;3.30;;
31730;SDS011;18310;55.586;12.286;2023-05-13T05:39:46;6.25;;;3.17;;
31730;SDS011;18310;55.586;12.286;2023-05-13T05:42:51;5.20;;;3.08;;
31730;SDS011;18310;55.586;12.286;2023-05-13T05:45:54;4.80;;;2.72;;
31730;SDS011;18310;55.586;12.286;2023-05-13T05:48:57;6.80;;;2.77;;
31730;SDS011;18310;55.586;12.286;2023-05-13T05:52:01;3.67;;;2.60;;
31730;SDS011;18310;55.586;12.286;2023-05-13T05:55:05;4.82;;;2.67;;
31730;SDS011;18310;55.586;12.286;2023-05-13T05:58:13;3.92;;;2.50;;
31730;SDS011;18310;55.586;12.286;2023-05-13T06:01:17;6.72;;;2.97;;
31730;SDS011;18310;55.586;12.286;2023-05-13T06:04:20;5.45;;;3.00;;
31730;SDS011;18310;55.586;12.286;2023-05-13T06:07:23;4.85;;;2.60;;
31730;SDS011;18310;55.586;12.286;2023-05-13T06:10:26;4.47;;;2.50;;
31730;SDS011;18310;55.586;12.286;2023-05-13T06:13:31;6.75;;;2.80;;
31730;SDS011;18310;55.586;12.286;2023-05-13T06:16:34;5.18;;;2.63;;
31730;SDS011;18310;55.586;12.286;2023-05-13T06:19:37;4.47;;;2.40;;
31730;SDS011;18310;55.586;12.286;2023-05-13T06:22:41;4.53;;;2.53;;
31730;SDS011;18310;55.586;12.286;2023-05-13T06:25:44;9.30;;;3.13;;
31730;SDS011;18310;55.586;12.286;2023-05-13T06:28:48;7.13;;;3.30;;
31730;SDS011;18310;55.586;12.286;2023-05-13T06:31:52;5.30;;;2.40;;
31730;SDS011;18310;55.586;12.286;2023-05-13T06:34:55;4.82;;;2.55;;
31730;SDS011;18310;55.586;12.286;2023-05-13T06:37:58;4.30;;;2.30;;
31730;SDS011;18310;55.586;12.286;2023-05-13T06:41:01;6.35;;;2.95;;
31730;SDS011;18310;55.586;12.286;2023-05-13T06:44:06;7.13;;;3.08;;
31730;SDS011;18310;55.586;12.286;2023-05-13T06:47:09;9.18;;;3.10;;
31730;SDS011;18310;55.586;12.286;2023-05-13T06:50:16;9.57;;;3.03;;
31730;SDS011;18310;55.586;12.286;2023-05-13T06:53:20;7.60;;;2.75;;
31730;SDS011;18310;55.586;12.286;2023-05-13T06:56:23;4.70;;;3.07;;
31730;SDS011;18310;55.586;12.286;2023-05-13T06:59:28;9.53;;;3.07;;
31730;SDS011;18310;55.586;12.286;2023-05-13T07:02:31;7.10;;;2.90;;
31730;SDS011;18310;55.586;12.286;2023-05-13T07:05:34;4.40;;;2.60;;
31730;SDS011;18310;55.586;12.286;2023-05-13T07:08:38;5.05;;;2.35;;
31730;SDS011;18310;55.586;12.286;2023-05-13T07:11:41;5.80;;;3.03;;
31730;SDS011;18310;55.586;12.286;2023-05-13T07:14:46;6.93;;;2.97;;
31730;SDS011;18310;55.586;12.286;2023-05-13T07:17:49;4.80;;;2.55;;
31730;SDS011;18310;55.586;12.286;2023-05-13T07:20:52;6.20;;;2.70;;
31730;SDS011;18310;55.586;12.286;2023-05-13T07:23:56;12.70;;;3.08;;
31730;SDS011;18310;55.586;12.286;2023-05-13T07:26:59;7.90;;;2.80;;
31730;SDS011;18310;55.586;12.286;2023-05-13T07:30:07;7.18;;;3.05;;
31730;SDS011;18310;55.586;12.286;2023-05-13T07:33:11;5.28;;;2.72;;
31730;SDS011;18310;55.586;12.286;2023-05-13T07:36:14;5.65;;;2.50;;
31730;SDS011;18310;55.586;12.286;2023-05-13T07:39:17;5.60;;;2.85;;
31730;SDS011;18310;55.586;12.286;2023-05-13T07:42:21;6.83;;;2.93;;
31730;SDS011;18310;55.586;12.286;2023-05-13T07:45:25;9.85;;;2.78;;
31730;SDS011;18310;55.586;12.286;2023-05-13T07:48:30;5.35;;;2.72;;
31730;SDS011;18310;55.586;12.286;2023-05-13T07:51:33;7.37;;;2.87;;
31730;SDS011;18310;55.586;12.286;2023-05-13T07:54:58;9.10;;;3.17;;
31730;SDS011;18310;55.586;12.286;2023-05-13T07:58:03;10.57;;;3.05;;
31730;SDS011;18310;55.586;12.286;2023-05-13T08:01:07;4.60;;;2.50;;
31730;SDS011;18310;55.586;12.286;2023-05-13T08:04:10;6.72;;;2.67;;
31730;SDS011;18310;55.586;12.286;2023-05-13T08:07:13;5.47;;;2.63;;
31730;SDS011;18310;55.586;12.286;2023-05-13T08:10:18;4.15;;;2.80;;
31730;SDS011;18310;55.586;12.286;2023-05-13T08:13:21;4.93;;;2.42;;
31730;SDS011;18310;55.586;12.286;2023-05-13T08:16:24;3.80;;;2.38;;
31730;SDS011;18310;55.586;12.286;2023-05-13T08:19:28;5.80;;;2.60;;
31730;SDS011;18310;55.586;12.286;2023-05-13T08:22:31;5.23;;;2.47;;
31730;SDS011;18310;55.586;12.286;2023-05-13T08:25:36;5.30;;;2.70;;
31730;SDS011;18310;55.586;12.286;2023-05-13T08:28:39;4.72;;;2.45;;
31730;SDS011;18310;55.586;12.286;2023-05-13T08:31:43;5.90;;;2.90;;
31730;SDS011;18310;55.586;12.286;2023-05-13T08:34:46;6.00;;;2.40;;
31730;SDS011;18310;55.586;12.286;2023-05-13T08:37:50;9.75;;;3.03;;
31730;SDS011;18310;55.586;12.286;2023-05-13T08:40:55;9.10;;;2.57;;
31730;SDS011;18310;55.586;12.286;2023-05-13T08:43:58;12.95;;;3.08;;
31730;SDS011;18310;55.586;12.286;2023-05-13T08:47:04;9.18;;;2.33;;
31730;SDS011;18310;55.586;12.286;2023-05-13T08:50:12;6.63;;;2.28;;
31730;SDS011;18310;55.586;12.286;2023-05-13T08:53:39;6.70;;;2.40;;
31730;SDS011;18310;55.586;12.286;2023-05-13T08:56:44;7.20;;;2.70;;
31730;SDS011;18310;55.586;12.286;2023-05-13T08:59:47;4.37;;;2.20;;
31730;SDS011;18310;55.586;12.286;2023-05-13T09:02:50;7.43;;;2.73;;
31730;SDS011;18310;55.586;12.286;2023-05-13T09:05:53;8.90;;;2.83;;
31730;SDS011;18310;55.586;12.286;2023-05-13T09:08:58;4.95;;;2.63;;
31730;SDS011;18310;55.586;12.286;2023-05-13T09:15:11;16.42;;;2.90;;
31730;SDS011;18310;55.586;12.286;2023-05-13T09:18:15;6.03;;;2.95;;
31730;SDS011;18310;55.586;12.286;2023-05-13T09:21:23;8.27;;;3.58;;
31730;SDS011;18310;55.586;12.286;2023-05-13T09:24:27;14.07;;;3.15;;
31730;SDS011;18310;55.586;12.286;2023-05-13T09:27:36;5.93;;;3.42;;
31730;SDS011;18310;55.586;12.286;2023-05-13T09:30:42;7.18;;;3.72;;
31730;SDS011;18310;55.586;12.286;2023-05-13T09:33:50;6.63;;;3.42;;
31730;SDS011;18310;55.586;12.286;2023-05-13T09:36:56;5.30;;;3.33;;
31730;SDS011;18310;55.586;12.286;2023-05-13T09:40:02;7.63;;;3.60;;
31730;SDS011;18310;55.586;12.286;2023-05-13T09:43:05;8.93;;;3.88;;
31730;SDS011;18310;55.586;12.286;2023-05-13T09:46:10;5.75;;;3.60;;
31730;SDS011;18310;55.586;12.286;2023-05-13T09:49:13;7.05;;;3.30;;
31730;SDS011;18310;55.586;12.286;2023-05-13T09:52:17;7.25;;;3.30;;
31730;SDS011;18310;55.586;12.286;2023-05-13T09:55:20;5.15;;;2.88;;
31730;SDS011;18310;55.586;12.286;2023-05-13T09:58:25;5.20;;;3.55;;
31730;SDS011;18310;55.586;12.286;2023-05-13T10:01:30;6.40;;;3.40;;
31730;SDS011;18310;55.586;12.286;2023-05-13T10:04:36;4.72;;;3.05;;
31730;SDS011;18310;55.586;12.286;2023-05-13T10:07:39;6.53;;;3.20;;
31730;SDS011;18310;55.586;12.286;2023-05-13T10:10:43;7.78;;;3.53;;
31730;SDS011;18310;55.586;12.286;2023-05-13T10:13:48;6.35;;;3.55;;
31730;SDS011;18310;55.586;12.286;2023-05-13T10:17:12;4.90;;;3.15;;
31730;SDS011;18310;55.586;12.286;2023-05-13T10:20:16;5.20;;;3.35;;
31730;SDS011;18310;55.586;12.286;2023-05-13T10:23:20;8.95;;;3.17;;
31730;SDS011;18310;55.586;12.286;2023-05-13T10:26:25;6.72;;;3.28;;
31730;SDS011;18310;55.586;12.286;2023-05-13T10:29:29;7.82;;;2.95;;
31730;SDS011;18310;55.586;12.286;2023-05-13T10:32:34;5.35;;;2.70;;
31730;SDS011;18310;55.586;12.286;2023-05-13T10:35:41;13.15;;;3.50;;
31730;SDS011;18310;55.586;12.286;2023-05-13T10:39:08;6.25;;;2.95;;
31730;SDS011;18310;55.586;12.286;2023-05-13T10:42:35;5.55;;;3.10;;
31730;SDS011;18310;55.586;12.286;2023-05-13T10:45:42;5.03;;;3.03;;
31730;SDS011;18310;55.586;12.286;2023-05-13T10:48:48;5.85;;;2.80;;
31730;SDS011;18310;55.586;12.286;2023-05-13T10:51:53;6.40;;;3.30;;
31730;SDS011;18310;55.586;12.286;2023-05-13T10:55:06;4.38;;;2.70;;
31730;SDS011;18310;55.586;12.286;2023-05-13T10:58:17;4.95;;;2.92;;
31730;SDS011;18310;55.586;12.286;2023-05-13T11:01:25;9.07;;;2.80;;
31730;SDS011;18310;55.586;12.286;2023-05-13T11:07:30;5.85;;;3.00;;
31730;SDS011;18310;55.586;12.286;2023-05-13T11:10:33;8.75;;;3.38;;
31730;SDS011;18310;55.586;12.286;2023-05-13T11:13:37;6.47;;;3.10;;
31730;SDS011;18310;55.586;12.286;2023-05-13T11:16:44;6.45;;;3.22;;
31730;SDS011;18310;55.586;12.286;2023-05-13T11:19:49;6.18;;;2.67;;
31730;SDS011;18310;55.586;12.286;2023-05-13T11:22:54;4.55;;;2.85;;
31730;SDS011;18310;55.586;12.286;2023-05-13T11:26:10;5.55;;;2.78;;
31730;SDS011;18310;55.586;12.286;2023-05-13T11:29:26;7.05;;;2.53;;
31730;SDS011;18310;55.586;12.286;2023-05-13T11:32:51;6.85;;;2.67;;
31730;SDS011;18310;55.586;12.286;2023-05-13T11:35:57;6.05;;;2.80;;
31730;SDS011;18310;55.586;12.286;2023-05-13T11:39:06;4.28;;;2.90;;
31730;SDS011;18310;55.586;12.286;2023-05-13T11:42:12;5.47;;;2.50;;
31730;SDS011;18310;55.586;12.286;2023-05-13T11:45:15;7.88;;;2.90;;
31730;SDS011;18310;55.586;12.286;2023-05-13T11:48:19;6.13;;;3.08;;
31730;SDS011;18310;55.586;12.286;2023-05-13T11:51:23;5.75;;;2.80;;
31730;SDS011;18310;55.586;12.286;2023-05-13T11:54:28;6.87;;;2.97;;
31730;SDS011;18310;55.586;12.286;2023-05-13T11:57:31;4.35;;;2.72;;
31730;SDS011;18310;55.586;12.286;2023-05-13T12:00:35;4.70;;;3.13;;
31730;SDS011;18310;55.586;12.286;2023-05-13T12:03:38;7.57;;;3.38;;
31730;SDS011;18310;55.586;12.286;2023-05-13T12:06:42;6.00;;;2.95;;
31730;SDS011;18310;55.586;12.286;2023-05-13T12:09:48;6.30;;;3.55;;
31730;SDS011;18310;55.586;12.286;2023-05-13T12:12:52;7.25;;;3.05;;
31730;SDS011;18310;55.586;12.286;2023-05-13T12:15:56;5.28;;;3.20;;
31730;SDS011;18310;55.586;12.286;2023-05-13T12:19:03;5.55;;;2.88;;
31730;SDS011;18310;55.586;12.286;2023-05-13T12:22:06;6.22;;;3.08;;
31730;SDS011;18310;55.586;12.286;2023-05-13T12:28:41;6.30;;;2.97;;
31730;SDS011;18310;55.586;12.286;2023-05-13T12:35:11;7.03;;;2.83;;
31730;SDS011;18310;55.586;12.286;2023-05-13T12:38:15;7.38;;;2.92;;
31730;SDS011;18310;55.586;12.286;2023-05-13T12:41:21;4.05;;;2.60;;
31730;SDS011;18310;55.586;12.286;2023-05-13T12:44:26;5.05;;;2.30;;
31730;SDS011;18310;55.586;12.286;2023-05-13T12:47:30;5.47;;;2.58;;
31730;SDS011;18310;55.586;12.286;2023-05-13T12:50:49;6.47;;;2.83;;
31730;SDS011;18310;55.586;12.286;2023-05-13T12:53:53;6.47;;;3.13;;
31730;SDS011;18310;55.586;12.286;2023-05-13T12:56:57;4.77;;;2.63;;
31730;SDS011;18310;55.586;12.286;2023-05-13T13:00:00;5.32;;;2.85;;
31730;SDS011;18310;55.586;12.286;2023-05-13T13:03:03;7.70;;;3.15;;
31730;SDS011;18310;55.586;12.286;2023-05-13T13:06:07;6.67;;;3.30;;
31730;SDS011;18310;55.586;12.286;2023-05-13T13:09:10;4.47;;;2.60;;
31730;SDS011;18310;55.586;12.286;2023-05-13T13:12:15;5.47;;;3.20;;
31730;SDS011;18310;55.586;12.286;2023-05-13T13:15:18;5.72;;;3.15;;
31730;SDS011;18310;55.586;12.286;2023-05-13T13:18:22;6.60;;;2.97;;
31730;SDS011;18310;55.586;12.286;2023-05-13T13:21:26;5.30;;;2.88;;
31730;SDS011;18310;55.586;12.286;2023-05-13T13:24:52;7.55;;;2.78;;
31730;SDS011;18310;55.586;12.286;2023-05-13T13:27:55;4.65;;;2.80;;
31730;SDS011;18310;55.586;12.286;2023-05-13T13:32:02;5.32;;;2.75;;
31730;SDS011;18310;55.586;12.286;2023-05-13T13:35:06;6.50;;;2.42;;
31730;SDS011;18310;55.586;12.286;2023-05-13T13:38:10;11.52;;;2.75;;
31730;SDS011;18310;55.586;12.286;2023-05-13T13:41:13;7.57;;;2.77;;
31730;SDS011;18310;55.586;12.286;2023-05-13T13:44:16;9.57;;;4.50;;
31730;SDS011;18310;55.586;12.286;2023-05-13T13:47:20;10.70;;;5.47;;
31730;SDS011;18310;55.586;12.286;2023-05-13T13:50:24;4.95;;;3.13;;
31730;SDS011;18310;55.586;12.286;2023-05-13T13:53:28;13.50;;;5.45;;
31730;SDS011;18310;55.586;12.286;2023-05-13T13:56:31;5.55;;;3.40;;
31730;SDS011;18310;55.586;12.286;2023-05-13T13:59:34;4.55;;;2.58;;
31730;SDS011;18310;55.586;12.286;2023-05-13T14:02:38;8.05;;;4.13;;
31730;SDS011;18310;55.586;12.286;2023-05-13T14:05:42;10.45;;;4.03;;
31730;SDS011;18310;55.586;12.286;2023-05-13T14:08:45;7.35;;;3.50;;
31730;SDS011;18310;55.586;12.286;2023-05-13T14:11:48;7.78;;;2.40;;
31730;SDS011;18310;55.586;12.286;2023-05-13T14:15:12;4.43;;;3.13;;
31730;SDS011;18310;55.586;12.286;2023-05-13T14:18:16;5.22;;;2.97;;
31730;SDS011;18310;55.586;12.286;2023-05-13T14:21:19;5.13;;;3.00;;
31730;SDS011;18310;55.586;12.286;2023-05-13T14:24:23;5.13;;;2.67;;
31730;SDS011;18310;55.586;12.286;2023-05-13T14:27:27;4.50;;;2.80;;
31730;SDS011;18310;55.586;12.286;2023-05-13T14:30:32;4.35;;;2.38;;
31730;SDS011;18310;55.586;12.286;2023-05-13T14:33:35;4.53;;;2.33;;
31730;SDS011;18310;55.586;12.286;2023-05-13T14:36:38;5.20;;;2.40;;
31730;SDS011;18310;55.586;12.286;2023-05-13T14:39:41;3.83;;;2.13;;
31730;SDS011;18310;55.586;12.286;2023-05-13T14:42:44;6.47;;;2.22;;
31730;SDS011;18310;55.586;12.286;2023-05-13T14:45:49;4.40;;;2.40;;
31730;SDS011;18310;55.586;12.286;2023-05-13T14:48:52;5.03;;;2.40;;
31730;SDS011;18310;55.586;12.286;2023-05-13T14:51:55;4.50;;;1.80;;
31730;SDS011;18310;55.586;12.286;2023-05-13T14:54:59;7.70;;;2.70;;
31730;SDS011;18310;55.586;12.286;2023-05-13T14:58:03;5.30;;;2.08;;
31730;SDS011;18310;55.586;12.286;2023-05-13T15:01:10;3.58;;;1.80;;
31730;SDS011;18310;55.586;12.286;2023-05-13T15:04:13;5.30;;;2.03;;
31730;SDS011;18310;55.586;12.286;2023-05-13T15:07:16;3.53;;;1.92;;
31730;SDS011;18310;55.586;12.286;2023-05-13T15:10:19;4.45;;;2.28;;
31730;SDS011;18310;55.586;12.286;2023-05-13T15:13:23;3.92;;;1.88;;
31730;SDS011;18310;55.586;12.286;2023-05-13T15:16:29;9.95;;;2.20;;
31730;SDS011;18310;55.586;12.286;2023-05-13T15:19:32;4.78;;;2.00;;
31730;SDS011;18310;55.586;12.286;2023-05-13T15:22:35;3.83;;;2.15;;
31730;SDS011;18310;55.586;12.286;2023-05-13T15:25:38;4.03;;;1.70;;
31730;SDS011;18310;55.586;12.286;2023-05-13T15:28:41;4.20;;;1.83;;
31730;SDS011;18310;55.586;12.286;2023-05-13T15:31:46;5.78;;;3.20;;
31730;SDS011;18310;55.586;12.286;2023-05-13T15:34:50;8.38;;;3.20;;
31730;SDS011;18310;55.586;12.286;2023-05-13T15:37:54;6.57;;;2.60;;
31730;SDS011;18310;55.586;12.286;2023-05-13T15:40:58;6.60;;;2.20;;
31730;SDS011;18310;55.586;12.286;2023-05-13T15:44:04;4.05;;;1.85;;
31730;SDS011;18310;55.586;12.286;2023-05-13T15:47:08;4.95;;;2.05;;
31730;SDS011;18310;55.586;12.286;2023-05-13T15:50:11;4.80;;;1.70;;
31730;SDS011;18310;55.586;12.286;2023-05-13T15:53:14;7.68;;;2.20;;
31730;SDS011;18310;55.586;12.286;2023-05-13T15:56:18;3.23;;;1.80;;
31730;SDS011;18310;55.586;12.286;2023-05-13T15:59:22;5.32;;;1.90;;
31730;SDS011;18310;55.586;12.286;2023-05-13T16:02:27;3.53;;;1.77;;
31730;SDS011;18310;55.586;12.286;2023-05-13T16:05:37;3.88;;;2.47;;
31730;SDS011;18310;55.586;12.286;2023-05-13T16:08:40;7.37;;;2.10;;
31730;SDS011;18310;55.586;12.286;2023-05-13T16:11:43;3.10;;;1.85;;
31730;SDS011;18310;55.586;12.286;2023-05-13T16:14:46;2.60;;;1.70;;
31730;SDS011;18310;55.586;12.286;2023-05-13T16:17:51;6.97;;;1.90;;
31730;SDS011;18310;55.586;12.286;2023-05-13T16:20:55;5.15;;;1.90;;
31730;SDS011;18310;55.586;12.286;2023-05-13T16:23:58;5.03;;;1.45;;
31730;SDS011;18310;55.586;12.286;2023-05-13T16:27:01;3.80;;;1.90;;
31730;SDS011;18310;55.586;12.286;2023-05-13T16:30:06;6.40;;;1.85;;
31730;SDS011;18310;55.586;12.286;2023-05-13T16:33:12;5.38;;;1.77;;
31730;SDS011;18310;55.586;12.286;2023-05-13T16:36:16;3.47;;;1.58;;
31730;SDS011;18310;55.586;12.286;2023-05-13T16:39:19;5.53;;;1.70;;
31730;SDS011;18310;55.586;12.286;2023-05-13T16:42:23;3.47;;;1.70;;
31730;SDS011;18310;55.586;12.286;2023-05-13T16:45:26;5.57;;;1.90;;
31730;SDS011;18310;55.586;12.286;2023-05-13T16:48:30;7.27;;;1.97;;
31730;SDS011;18310;55.586;12.286;2023-05-13T16:51:34;3.55;;;1.83;;
31730;SDS011;18310;55.586;12.286;2023-05-13T16:54:37;5.93;;;2.00;;
31730;SDS011;18310;55.586;12.286;2023-05-13T16:57:40;4.77;;;2.17;;
31730;SDS011;18310;55.586;12.286;2023-05-13T17:00:44;5.00;;;1.90;;
31730;SDS011;18310;55.586;12.286;2023-05-13T17:03:48;23.50;;;2.60;;
31730;SDS011;18310;55.586;12.286;2023-05-13T17:06:51;21.25;;;9.65;;
31730;SDS011;18310;55.586;12.286;2023-05-13T17:09:57;20.98;;;11.45;;
31730;SDS011;18310;55.586;12.286;2023-05-13T17:13:00;14.55;;;5.68;;
31730;SDS011;18310;55.586;12.286;2023-05-13T17:16:03;9.38;;;4.03;;
31730;SDS011;18310;55.586;12.286;2023-05-13T17:19:08;12.57;;;3.67;;
31730;SDS011;18310;55.586;12.286;2023-05-13T17:22:12;7.00;;;2.60;;
31730;SDS011;18310;55.586;12.286;2023-05-13T17:25:15;7.45;;;2.58;;
31730;SDS011;18310;55.586;12.286;2023-05-13T17:28:18;3.72;;;2.10;;
31730;SDS011;18310;55.586;12.286;2023-05-13T17:31:21;4.10;;;2.42;;
31730;SDS011;18310;55.586;12.286;2023-05-13T17:34:27;9.85;;;5.68;;
31730;SDS011;18310;55.586;12.286;2023-05-13T17:37:30;7.60;;;2.70;;
31730;SDS011;18310;55.586;12.286;2023-05-13T17:40:33;8.00;;;2.22;;
31730;SDS011;18310;55.586;12.286;2023-05-13T17:43:37;6.40;;;2.40;;
31730;SDS011;18310;55.586;12.286;2023-05-13T17:46:40;4.43;;;2.10;;
31730;SDS011;18310;55.586;12.286;2023-05-13T17:49:45;8.77;;;2.90;;
31730;SDS011;18310;55.586;12.286;2023-05-13T17:52:48;12.68;;;2.30;;
31730;SDS011;18310;55.586;12.286;2023-05-13T17:55:51;5.90;;;2.35;;
31730;SDS011;18310;55.586;12.286;2023-05-13T17:58:55;17.77;;;2.43;;
31730;SDS011;18310;55.586;12.286;2023-05-13T18:02:00;12.13;;;2.90;;
31730;SDS011;18310;55.586;12.286;2023-05-13T18:05:05;9.30;;;2.50;;
31730;SDS011;18310;55.586;12.286;2023-05-13T18:08:08;4.32;;;2.00;;
31730;SDS011;18310;55.586;12.286;2023-05-13T18:11:11;7.95;;;2.50;;
31730;SDS011;18310;55.586;12.286;2023-05-13T18:14:14;4.20;;;2.42;;
31730;SDS011;18310;55.586;12.286;2023-05-13T18:17:18;14.30;;;7.90;;
31730;SDS011;18310;55.586;12.286;2023-05-13T18:20:23;7.57;;;4.57;;
31730;SDS011;18310;55.586;12.286;2023-05-13T18:23:26;5.18;;;2.80;;
31730;SDS011;18310;55.586;12.286;2023-05-13T18:26:29;3.78;;;2.03;;
31730;SDS011;18310;55.586;12.286;2023-05-13T18:29:32;12.07;;;2.97;;
31730;SDS011;18310;55.586;12.286;2023-05-13T18:32:35;26.15;;;3.47;;
31730;SDS011;18310;55.586;12.286;2023-05-13T18:35:40;24.02;;;2.63;;